sensor_id;sensor_type;location;lat;lon;timestamp;pressure;altitude;pressure_sealevel;temperature;humidity
49515;BME280;35415;47.870;16.058;2023-02-20T00:21:27;98022.44;;;7.59;100.00
49515;BME280;35415;47.870;16.058;2023-02-20T02:44:15;98073.19;;;6.51;96.33
49515;BME280;35415;47.870;16.058;2023-02-20T03:11:26;98059.44;;;5.79;96.93
49515;BME280;35415;47.870;16.058;2023-02-20T03:35:04;98087.91;;;5.85;97.61
49515;BME280;35415;47.870;16.058;2023-02-20T03:47:12;98039.03;;;5.60;98.24
49515;BME280;35415;47.870;16.058;2023-02-20T03:55:50;98069.72;;;5.76;97.69
49515;BME280;35415;47.870;16.058;2023-02-20T04:01:28;98071.16;;;5.78;97.90
49515;BME280;35415;47.870;16.058;2023-02-20T04:03:57;98079.81;;;5.73;97.96
49515;BME280;35415;47.870;16.058;2023-02-20T04:06:27;98069.13;;;5.73;98.95
49515;BME280;35415;47.870;16.058;2023-02-20T04:09:02;98018.53;;;5.29;98.51
49515;BME280;35415;47.870;16.058;2023-02-20T04:14:34;98059.59;;;5.59;98.31
49515;BME280;35415;47.870;16.058;2023-02-20T04:20:04;98032.63;;;5.36;98.41
49515;BME280;35415;47.870;16.058;2023-02-20T05:14:30;97976.41;;;5.06;99.22
49515;BME280;35415;47.870;16.058;2023-02-20T05:26:38;98049.81;;;5.47;99.81
49515;BME280;35415;47.870;16.058;2023-02-20T05:29:05;98048.59;;;5.42;100.00
49515;BME280;35415;47.870;16.058;2023-02-20T05:57:17;98001.75;;;5.22;100.00
49515;BME280;35415;47.870;16.058;2023-02-20T05:59:44;98005.84;;;5.24;100.00
49515;BME280;35415;47.870;16.058;2023-02-20T09:45:00;97924.00;;;10.71;66.35
49515;BME280;35415;47.870;16.058;2023-02-20T09:53:36;97889.28;;;10.70;65.08
49515;BME280;35415;47.870;16.058;2023-02-20T10:07:58;97886.50;;;10.60;64.16
49515;BME280;35415;47.870;16.058;2023-02-20T10:10:27;97912.00;;;10.79;63.50
49515;BME280;35415;47.870;16.058;2023-02-20T10:13:06;97873.22;;;10.53;61.99
49515;BME280;35415;47.870;16.058;2023-02-20T10:15:44;97888.56;;;10.52;61.37
49515;BME280;35415;47.870;16.058;2023-02-20T10:18:20;97876.72;;;10.53;60.59
49515;BME280;35415;47.870;16.058;2023-02-20T10:20:55;97826.22;;;10.34;60.18
49515;BME280;35415;47.870;16.058;2023-02-20T10:23:37;97964.84;;;10.90;58.65
49515;BME280;35415;47.870;16.058;2023-02-20T10:26:10;97889.16;;;10.81;58.89
49515;BME280;35415;47.870;16.058;2023-02-20T10:28:39;97914.53;;;10.91;59.24
49515;BME280;35415;47.870;16.058;2023-02-20T10:31:16;97886.16;;;10.78;58.73
49515;BME280;35415;47.870;16.058;2023-02-20T10:33:51;97837.50;;;10.58;58.78
49515;BME280;35415;47.870;16.058;2023-02-20T10:36:28;97873.41;;;10.95;58.33
49515;BME280;35415;47.870;16.058;2023-02-20T10:39:05;97828.69;;;10.62;58.30
49515;BME280;35415;47.870;16.058;2023-02-20T10:41:36;97853.09;;;10.82;59.81
49515;BME280;35415;47.870;16.058;2023-02-20T10:44:11;97862.38;;;10.97;59.18
49515;BME280;35415;47.870;16.058;2023-02-20T10:46:49;97795.78;;;10.55;58.50
49515;BME280;35415;47.870;16.058;2023-02-20T10:49:24;97856.00;;;11.08;59.02
49515;BME280;35415;47.870;16.058;2023-02-20T10:51:59;97871.16;;;11.14;57.99
49515;BME280;35415;47.870;16.058;2023-02-20T10:54:35;97852.63;;;11.23;58.04
49515;BME280;35415;47.870;16.058;2023-02-20T10:57:09;97808.44;;;11.13;57.72
49515;BME280;35415;47.870;16.058;2023-02-20T10:59:44;97837.22;;;11.45;58.33
49515;BME280;35415;47.870;16.058;2023-02-20T11:02:20;97852.41;;;11.61;55.03
49515;BME280;35415;47.870;16.058;2023-02-20T11:04:54;97754.38;;;11.25;55.28
49515;BME280;35415;47.870;16.058;2023-02-20T11:07:24;97806.63;;;11.71;52.40
49515;BME280;35415;47.870;16.058;2023-02-20T11:09:54;97801.03;;;11.78;51.61
49515;BME280;35415;47.870;16.058;2023-02-20T11:12:25;97779.16;;;11.69;50.81
49515;BME280;35415;47.870;16.058;2023-02-20T11:14:56;97746.25;;;11.67;49.46
49515;BME280;35415;47.870;16.058;2023-02-20T11:17:28;97763.94;;;11.95;49.19
49515;BME280;35415;47.870;16.058;2023-02-20T11:19:58;97799.06;;;12.11;49.18
49515;BME280;35415;47.870;16.058;2023-02-20T11:22:41;97717.56;;;11.93;47.42
49515;BME280;35415;47.870;16.058;2023-02-20T11:25:25;97776.19;;;12.33;47.67
49515;BME280;35415;47.870;16.058;2023-02-20T11:27:55;97784.31;;;12.44;46.71
49515;BME280;35415;47.870;16.058;2023-02-20T11:30:28;97806.44;;;12.51;46.78
49515;BME280;35415;47.870;16.058;2023-02-20T11:33:04;97762.16;;;12.42;47.23
49515;BME280;35415;47.870;16.058;2023-02-20T11:35:37;97777.31;;;12.58;46.75
49515;BME280;35415;47.870;16.058;2023-02-20T11:38:27;97749.53;;;12.68;46.42
49515;BME280;35415;47.870;16.058;2023-02-20T11:41:07;97758.72;;;12.77;46.13
49515;BME280;35415;47.870;16.058;2023-02-20T11:43:37;97765.72;;;12.88;45.59
49515;BME280;35415;47.870;16.058;2023-02-20T11:46:13;97773.81;;;12.93;45.69
49515;BME280;35415;47.870;16.058;2023-02-20T11:49:00;97759.81;;;12.96;44.90
49515;BME280;35415;47.870;16.058;2023-02-20T11:51:32;97733.88;;;12.90;44.31
49515;BME280;35415;47.870;16.058;2023-02-20T11:54:13;97765.44;;;13.10;44.41
49515;BME280;35415;47.870;16.058;2023-02-20T11:56:59;97681.78;;;12.64;44.39
49515;BME280;35415;47.870;16.058;2023-02-20T11:59:32;97782.78;;;13.19;44.67
49515;BME280;35415;47.870;16.058;2023-02-20T12:02:21;97765.22;;;13.21;44.62
49515;BME280;35415;47.870;16.058;2023-02-20T12:05:08;97711.19;;;13.01;44.70
49515;BME280;35415;47.870;16.058;2023-02-20T12:07:42;97663.13;;;12.93;44.33
49515;BME280;35415;47.870;16.058;2023-02-20T12:10:30;97707.94;;;13.04;44.48
49515;BME280;35415;47.870;16.058;2023-02-20T12:13:01;97746.81;;;13.44;44.73
49515;BME280;35415;47.870;16.058;2023-02-20T12:15:29;97739.72;;;13.58;42.86
49515;BME280;35415;47.870;16.058;2023-02-20T12:21:03;97737.81;;;13.69;43.09
49515;BME280;35415;47.870;16.058;2023-02-20T12:23:42;97732.66;;;13.72;43.15
49515;BME280;35415;47.870;16.058;2023-02-20T12:26:21;97705.69;;;13.62;42.71
49515;BME280;35415;47.870;16.058;2023-02-20T12:29:05;97691.88;;;13.59;43.23
49515;BME280;35415;47.870;16.058;2023-02-20T12:31:46;97671.41;;;13.42;42.63
49515;BME280;35415;47.870;16.058;2023-02-20T12:34:33;97699.41;;;13.72;42.37
49515;BME280;35415;47.870;16.058;2023-02-20T12:37:11;97689.75;;;13.55;42.79
49515;BME280;35415;47.870;16.058;2023-02-20T12:39:56;97724.53;;;13.77;42.69
49515;BME280;35415;47.870;16.058;2023-02-20T12:42:41;97640.53;;;13.59;43.03
49515;BME280;35415;47.870;16.058;2023-02-20T12:45:24;97645.41;;;13.62;43.13
49515;BME280;35415;47.870;16.058;2023-02-20T12:48:08;97711.16;;;14.01;43.17
49515;BME280;35415;47.870;16.058;2023-02-20T12:50:45;97628.09;;;13.63;42.48
49515;BME280;35415;47.870;16.058;2023-02-20T12:53:35;97622.66;;;13.68;42.04
49515;BME280;35415;47.870;16.058;2023-02-20T12:59:07;97619.31;;;13.86;42.16
49515;BME280;35415;47.870;16.058;2023-02-20T13:01:47;97646.66;;;14.24;41.08
49515;BME280;35415;47.870;16.058;2023-02-20T13:04:22;97614.50;;;14.17;40.58
49515;BME280;35415;47.870;16.058;2023-02-20T13:06:57;97615.19;;;14.33;40.64
49515;BME280;35415;47.870;16.058;2023-02-20T13:09:32;97572.66;;;14.04;39.75
49515;BME280;35415;47.870;16.058;2023-02-20T13:12:02;97601.72;;;14.28;39.03
49515;BME280;35415;47.870;16.058;2023-02-20T13:14:41;97642.16;;;14.43;38.98
49515;BME280;35415;47.870;16.058;2023-02-20T13:17:28;97636.22;;;14.41;39.82
49515;BME280;35415;47.870;16.058;2023-02-20T13:20:09;97625.00;;;14.24;39.64
49515;BME280;35415;47.870;16.058;2023-02-20T13:22:39;97596.66;;;14.16;38.77
49515;BME280;35415;47.870;16.058;2023-02-20T13:25:38;97622.00;;;14.30;39.32
49515;BME280;35415;47.870;16.058;2023-02-20T13:31:17;97584.06;;;14.01;39.67
49515;BME280;35415;47.870;16.058;2023-02-20T13:33:47;97608.56;;;14.15;39.14
49515;BME280;35415;47.870;16.058;2023-02-20T13:36:18;97601.03;;;14.07;39.02
49515;BME280;35415;47.870;16.058;2023-02-20T13:42:26;97605.75;;;13.96;39.83
49515;BME280;35415;47.870;16.058;2023-02-20T13:44:54;97587.38;;;13.88;37.99
49515;BME280;35415;47.870;16.058;2023-02-20T13:47:30;97599.84;;;13.84;39.58
49515;BME280;35415;47.870;16.058;2023-02-20T13:50:01;97577.22;;;13.70;39.25
49515;BME280;35415;47.870;16.058;2023-02-20T13:52:36;97579.94;;;13.70;39.57
49515;BME280;35415;47.870;16.058;2023-02-20T13:55:16;97597.44;;;13.82;38.61
49515;BME280;35415;47.870;16.058;2023-02-20T13:57:51;97515.50;;;13.43;38.63
49515;BME280;35415;47.870;16.058;2023-02-20T14:00:26;97530.28;;;13.55;38.84
49515;BME280;35415;47.870;16.058;2023-02-20T14:02:54;97581.41;;;13.91;38.44
49515;BME280;35415;47.870;16.058;2023-02-20T14:05:26;97525.16;;;13.54;38.82
49515;BME280;35415;47.870;16.058;2023-02-20T14:07:55;97499.75;;;13.55;37.71
49515;BME280;35415;47.870;16.058;2023-02-20T14:10:27;97491.88;;;13.59;38.25
49515;BME280;35415;47.870;16.058;2023-02-20T14:13:00;97530.47;;;13.69;38.27
49515;BME280;35415;47.870;16.058;2023-02-20T14:15:30;97532.66;;;14.01;38.16
49515;BME280;35415;47.870;16.058;2023-02-20T14:17:58;97537.63;;;13.89;37.62
49515;BME280;35415;47.870;16.058;2023-02-20T14:20:33;97490.78;;;13.65;38.01
49515;BME280;35415;47.870;16.058;2023-02-20T14:23:18;97574.78;;;14.12;37.76
49515;BME280;35415;47.870;16.058;2023-02-20T14:25:57;97538.53;;;14.13;37.22
49515;BME280;35415;47.870;16.058;2023-02-20T14:28:27;97535.94;;;13.98;37.53
49515;BME280;35415;47.870;16.058;2023-02-20T14:31:20;97544.41;;;14.21;37.83
49515;BME280;35415;47.870;16.058;2023-02-20T14:33:49;97517.78;;;14.04;36.98
49515;BME280;35415;47.870;16.058;2023-02-20T14:39:33;97499.56;;;14.14;37.61
49515;BME280;35415;47.870;16.058;2023-02-20T14:42:04;97525.56;;;14.39;36.65
49515;BME280;35415;47.870;16.058;2023-02-20T14:44:33;97530.69;;;14.41;35.86
49515;BME280;35415;47.870;16.058;2023-02-20T14:47:05;97535.00;;;14.42;36.80
49515;BME280;35415;47.870;16.058;2023-02-20T14:49:34;97491.22;;;14.11;36.24
49515;BME280;35415;47.870;16.058;2023-02-20T14:52:19;97537.44;;;14.43;36.72
49515;BME280;35415;47.870;16.058;2023-02-20T14:55:21;97534.72;;;14.49;36.50
49515;BME280;35415;47.870;16.058;2023-02-20T14:58:04;97491.34;;;14.25;35.75
49515;BME280;35415;47.870;16.058;2023-02-20T15:00:39;97506.44;;;14.31;35.88
49515;BME280;35415;47.870;16.058;2023-02-20T15:03:09;97523.03;;;14.53;35.77
49515;BME280;35415;47.870;16.058;2023-02-20T15:05:40;97506.34;;;14.41;35.84
49515;BME280;35415;47.870;16.058;2023-02-20T15:08:31;97463.72;;;14.28;35.11
49515;BME280;35415;47.870;16.058;2023-02-20T15:11:12;97522.41;;;14.61;34.69
49515;BME280;35415;47.870;16.058;2023-02-20T15:14:16;97501.03;;;14.60;35.33
49515;BME280;35415;47.870;16.058;2023-02-20T15:21:28;97514.38;;;14.75;35.06
49515;BME280;35415;47.870;16.058;2023-02-20T16:45:33;97448.09;;;13.91;35.97
49515;BME280;35415;47.870;16.058;2023-02-20T16:48:11;97412.53;;;13.78;36.00
49515;BME280;35415;47.870;16.058;2023-02-20T16:55:20;97391.56;;;13.65;36.08
49515;BME280;35415;47.870;16.058;2023-02-20T16:57:51;97350.13;;;13.46;36.03
49515;BME280;35415;47.870;16.058;2023-02-20T17:00:21;97383.06;;;13.48;36.33
49515;BME280;35415;47.870;16.058;2023-02-20T17:02:56;97395.69;;;13.58;35.99
49515;BME280;35415;47.870;16.058;2023-02-20T17:05:31;97356.63;;;13.45;36.21
49515;BME280;35415;47.870;16.058;2023-02-20T17:08:10;97380.78;;;13.60;36.16
49515;BME280;35415;47.870;16.058;2023-02-20T17:11:01;97374.47;;;13.41;36.30
49515;BME280;35415;47.870;16.058;2023-02-20T17:13:28;97436.25;;;13.87;36.17
49515;BME280;35415;47.870;16.058;2023-02-20T17:15:55;97433.53;;;13.87;36.20
49515;BME280;35415;47.870;16.058;2023-02-20T17:18:25;97452.72;;;13.90;36.13
49515;BME280;35415;47.870;16.058;2023-02-20T17:20:54;97446.53;;;13.84;36.21
49515;BME280;35415;47.870;16.058;2023-02-20T17:23:21;97393.25;;;13.56;35.81
49515;BME280;35415;47.870;16.058;2023-02-20T17:25:50;97470.00;;;13.94;36.39
49515;BME280;35415;47.870;16.058;2023-02-20T17:28:21;97444.28;;;13.97;36.14
49515;BME280;35415;47.870;16.058;2023-02-20T17:30:48;97402.34;;;13.70;36.09
49515;BME280;35415;47.870;16.058;2023-02-20T17:33:18;97428.94;;;13.87;36.25
49515;BME280;35415;47.870;16.058;2023-02-20T17:35:53;97425.16;;;13.88;36.81
49515;BME280;35415;47.870;16.058;2023-02-20T17:38:22;97413.81;;;13.86;36.73
49515;BME280;35415;47.870;16.058;2023-02-20T17:40:50;97418.88;;;13.93;36.25
49515;BME280;35415;47.870;16.058;2023-02-20T17:43:19;97424.25;;;13.98;36.22
49515;BME280;35415;47.870;16.058;2023-02-20T17:45:46;97423.44;;;13.97;36.68
49515;BME280;35415;47.870;16.058;2023-02-20T17:48:14;97438.25;;;14.05;36.45
49515;BME280;35415;47.870;16.058;2023-02-20T17:50:47;97367.00;;;13.62;36.72
49515;BME280;35415;47.870;16.058;2023-02-20T17:53:25;97425.09;;;13.93;36.81
49515;BME280;35415;47.870;16.058;2023-02-20T17:55:55;97421.59;;;13.93;36.41
49515;BME280;35415;47.870;16.058;2023-02-20T17:58:22;97365.94;;;13.58;36.38
49515;BME280;35415;47.870;16.058;2023-02-20T18:00:51;97416.16;;;13.98;36.52
49515;BME280;35415;47.870;16.058;2023-02-20T18:03:19;97379.72;;;13.61;36.91
49515;BME280;35415;47.870;16.058;2023-02-20T18:05:47;97364.84;;;13.64;36.56
49515;BME280;35415;47.870;16.058;2023-02-20T18:08:22;97421.13;;;13.85;36.37
49515;BME280;35415;47.870;16.058;2023-02-20T18:10:49;97412.16;;;13.90;36.78
49515;BME280;35415;47.870;16.058;2023-02-20T18:13:17;97375.59;;;13.69;36.35
49515;BME280;35415;47.870;16.058;2023-02-20T18:15:45;97361.91;;;13.55;36.52
49515;BME280;35415;47.870;16.058;2023-02-20T18:18:13;97383.41;;;13.70;36.19
49515;BME280;35415;47.870;16.058;2023-02-20T18:20:40;97395.31;;;13.69;36.32
49515;BME280;35415;47.870;16.058;2023-02-20T18:23:07;97369.75;;;13.57;36.04
49515;BME280;35415;47.870;16.058;2023-02-20T18:25:37;97399.13;;;13.97;36.10
49515;BME280;35415;47.870;16.058;2023-02-20T18:28:10;97367.72;;;13.72;36.00
49515;BME280;35415;47.870;16.058;2023-02-20T18:30:38;97379.41;;;13.92;36.04
49515;BME280;35415;47.870;16.058;2023-02-20T18:33:07;97385.34;;;13.94;35.96
49515;BME280;35415;47.870;16.058;2023-02-20T18:35:34;97386.78;;;13.86;35.79
49515;BME280;35415;47.870;16.058;2023-02-20T18:38:06;97372.97;;;13.88;35.61
49515;BME280;35415;47.870;16.058;2023-02-20T18:40:37;97358.66;;;13.87;35.60
49515;BME280;35415;47.870;16.058;2023-02-20T18:43:06;97381.38;;;14.10;35.62
49515;BME280;35415;47.870;16.058;2023-02-20T18:45:33;97321.97;;;13.76;35.85
49515;BME280;35415;47.870;16.058;2023-02-20T18:48:02;97312.38;;;13.65;35.84
49515;BME280;35415;47.870;16.058;2023-02-20T18:50:32;97318.47;;;13.75;35.58
49515;BME280;35415;47.870;16.058;2023-02-20T18:53:00;97339.56;;;14.02;35.64
49515;BME280;35415;47.870;16.058;2023-02-20T18:55:28;97328.28;;;13.95;35.72
49515;BME280;35415;47.870;16.058;2023-02-20T18:58:21;97404.59;;;14.16;35.59
49515;BME280;35415;47.870;16.058;2023-02-20T19:00:53;97376.16;;;14.19;35.65
49515;BME280;35415;47.870;16.058;2023-02-20T19:03:21;97295.25;;;13.74;35.61
49515;BME280;35415;47.870;16.058;2023-02-20T19:05:49;97334.66;;;13.80;35.48
49515;BME280;35415;47.870;16.058;2023-02-20T19:08:16;97380.34;;;14.06;35.86
49515;BME280;35415;47.870;16.058;2023-02-20T19:10:44;97386.97;;;14.19;35.71
49515;BME280;35415;47.870;16.058;2023-02-20T19:13:11;97351.91;;;13.84;35.93
49515;BME280;35415;47.870;16.058;2023-02-20T19:15:40;97383.06;;;14.06;35.69
49515;BME280;35415;47.870;16.058;2023-02-20T19:18:09;97377.06;;;14.09;35.86
49515;BME280;35415;47.870;16.058;2023-02-20T19:20:37;97359.16;;;13.89;35.79
49515;BME280;35415;47.870;16.058;2023-02-20T19:23:04;97374.94;;;14.06;35.35
49515;BME280;35415;47.870;16.058;2023-02-20T19:25:32;97362.88;;;13.98;35.01
49515;BME280;35415;47.870;16.058;2023-02-20T19:28:01;97327.44;;;13.71;35.39
49515;BME280;35415;47.870;16.058;2023-02-20T19:30:40;97410.47;;;14.23;34.64
49515;BME280;35415;47.870;16.058;2023-02-20T19:33:08;97397.97;;;14.27;34.92
49515;BME280;35415;47.870;16.058;2023-02-20T19:35:37;97346.78;;;13.83;34.99
49515;BME280;35415;47.870;16.058;2023-02-20T19:38:04;97371.34;;;14.15;34.69
49515;BME280;35415;47.870;16.058;2023-02-20T19:40:33;97351.63;;;13.86;35.05
49515;BME280;35415;47.870;16.058;2023-02-20T19:43:01;97348.13;;;13.85;34.99
49515;BME280;35415;47.870;16.058;2023-02-20T19:45:28;97380.84;;;14.13;34.70
49515;BME280;35415;47.870;16.058;2023-02-20T19:47:57;97322.47;;;13.83;34.59
49515;BME280;35415;47.870;16.058;2023-02-20T19:50:28;97364.34;;;14.09;34.55
49515;BME280;35415;47.870;16.058;2023-02-20T19:52:56;97345.03;;;13.97;34.85
49515;BME280;35415;47.870;16.058;2023-02-20T19:55:26;97359.72;;;14.15;34.93
49515;BME280;35415;47.870;16.058;2023-02-20T19:57:53;97291.63;;;13.84;34.63
49515;BME280;35415;47.870;16.058;2023-02-20T20:00:21;97366.16;;;14.19;34.75
49515;BME280;35415;47.870;16.058;2023-02-20T20:02:50;97367.75;;;14.20;34.68
49515;BME280;35415;47.870;16.058;2023-02-20T20:05:23;97338.16;;;14.05;34.45
49515;BME280;35415;47.870;16.058;2023-02-20T20:07:53;97331.16;;;14.04;34.61
49515;BME280;35415;47.870;16.058;2023-02-20T20:10:21;97311.66;;;13.83;34.87
49515;BME280;35415;47.870;16.058;2023-02-20T20:12:51;97316.59;;;14.00;34.72
49515;BME280;35415;47.870;16.058;2023-02-20T20:15:21;97359.63;;;14.20;34.70
49515;BME280;35415;47.870;16.058;2023-02-20T20:17:53;97340.78;;;14.15;34.55
49515;BME280;35415;47.870;16.058;2023-02-20T20:20:23;97316.94;;;13.93;34.48
49515;BME280;35415;47.870;16.058;2023-02-20T20:22:52;97314.56;;;13.87;34.95
49515;BME280;35415;47.870;16.058;2023-02-20T20:25:21;97351.97;;;14.03;35.30
49515;BME280;35415;47.870;16.058;2023-02-20T20:27:53;97340.13;;;13.99;35.20
49515;BME280;35415;47.870;16.058;2023-02-20T20:30:24;97268.03;;;13.66;35.47
49515;BME280;35415;47.870;16.058;2023-02-20T20:32:52;97313.91;;;14.00;35.52
49515;BME280;35415;47.870;16.058;2023-02-20T20:35:25;97321.22;;;13.99;35.95
49515;BME280;35415;47.870;16.058;2023-02-20T20:37:53;97308.59;;;13.90;35.78
49515;BME280;35415;47.870;16.058;2023-02-20T20:40:21;97314.19;;;13.98;35.79
49515;BME280;35415;47.870;16.058;2023-02-20T20:42:51;97311.59;;;13.88;35.96
49515;BME280;35415;47.870;16.058;2023-02-20T20:45:20;97292.94;;;13.87;36.30
49515;BME280;35415;47.870;16.058;2023-02-20T20:47:50;97301.88;;;13.87;36.28
49515;BME280;35415;47.870;16.058;2023-02-20T20:50:18;97344.09;;;14.07;36.25
49515;BME280;35415;47.870;16.058;2023-02-20T20:52:48;97296.03;;;13.75;36.28
49515;BME280;35415;47.870;16.058;2023-02-20T20:55:16;97318.97;;;13.82;36.15
49515;BME280;35415;47.870;16.058;2023-02-20T20:57:44;97305.81;;;13.71;36.34
49515;BME280;35415;47.870;16.058;2023-02-20T21:00:22;97251.19;;;13.50;36.59
49515;BME280;35415;47.870;16.058;2023-02-20T21:02:51;97296.50;;;13.58;36.52
49515;BME280;35415;47.870;16.058;2023-02-20T21:05:21;97270.91;;;13.50;36.84
49515;BME280;35415;47.870;16.058;2023-02-20T21:07:52;97302.03;;;13.72;37.03
49515;BME280;35415;47.870;16.058;2023-02-20T21:10:20;97339.94;;;13.91;37.01
49515;BME280;35415;47.870;16.058;2023-02-20T21:12:47;97278.25;;;13.45;37.03
49515;BME280;35415;47.870;16.058;2023-02-20T21:15:18;97337.66;;;13.79;36.89
49515;BME280;35415;47.870;16.058;2023-02-20T21:17:52;97336.84;;;13.78;36.69
49515;BME280;35415;47.870;16.058;2023-02-20T21:20:23;97270.97;;;13.45;36.77
49515;BME280;35415;47.870;16.058;2023-02-20T21:22:57;97326.22;;;13.58;36.80
49515;BME280;35415;47.870;16.058;2023-02-20T21:25:26;97295.44;;;13.54;36.76
49515;BME280;35415;47.870;16.058;2023-02-20T21:27:54;97305.94;;;13.61;36.23
49515;BME280;35415;47.870;16.058;2023-02-20T21:30:24;97312.38;;;13.65;36.70
49515;BME280;35415;47.870;16.058;2023-02-20T21:32:52;97349.81;;;13.76;36.40
49515;BME280;35415;47.870;16.058;2023-02-20T21:35:20;97308.16;;;13.53;36.67
49515;BME280;35415;47.870;16.058;2023-02-20T21:37:50;97318.09;;;13.58;36.43
49515;BME280;35415;47.870;16.058;2023-02-20T21:40:19;97282.31;;;13.42;36.00
49515;BME280;35415;47.870;16.058;2023-02-20T21:42:49;97298.63;;;13.61;36.22
49515;BME280;35415;47.870;16.058;2023-02-20T21:45:33;97348.78;;;13.72;35.92
49515;BME280;35415;47.870;16.058;2023-02-20T21:48:01;97301.78;;;13.44;36.02
49515;BME280;35415;47.870;16.058;2023-02-20T21:50:30;97287.25;;;13.35;35.93
49515;BME280;35415;47.870;16.058;2023-02-20T21:52:57;97287.50;;;13.39;35.89
49515;BME280;35415;47.870;16.058;2023-02-20T21:55:31;97302.03;;;13.43;35.65
49515;BME280;35415;47.870;16.058;2023-02-20T21:57:59;97310.47;;;13.36;35.65
49515;BME280;35415;47.870;16.058;2023-02-20T22:00:27;97322.47;;;13.54;35.32
49515;BME280;35415;47.870;16.058;2023-02-20T22:02:53;97294.91;;;13.28;35.45
49515;BME280;35415;47.870;16.058;2023-02-20T22:05:18;97338.63;;;13.59;35.36
49515;BME280;35415;47.870;16.058;2023-02-20T22:07:44;97349.31;;;13.45;35.46
49515;BME280;35415;47.870;16.058;2023-02-20T22:10:30;97339.84;;;13.48;35.00
49515;BME280;35415;47.870;16.058;2023-02-20T22:13:15;97269.63;;;13.09;34.30
49515;BME280;35415;47.870;16.058;2023-02-20T22:16:00;97337.13;;;13.48;34.61
49515;BME280;35415;47.870;16.058;2023-02-20T22:18:44;97279.84;;;13.17;34.12
49515;BME280;35415;47.870;16.058;2023-02-20T22:21:29;97276.09;;;13.13;34.02
49515;BME280;35415;47.870;16.058;2023-02-20T22:24:13;97339.78;;;13.53;33.92
49515;BME280;35415;47.870;16.058;2023-02-20T22:27:00;97281.72;;;13.21;34.08
49515;BME280;35415;47.870;16.058;2023-02-20T22:29:48;97330.63;;;13.49;34.14
49515;BME280;35415;47.870;16.058;2023-02-20T22:32:33;97289.72;;;13.32;34.03
49515;BME280;35415;47.870;16.058;2023-02-20T22:35:20;97283.31;;;13.22;33.80
49515;BME280;35415;47.870;16.058;2023-02-20T22:38:04;97266.63;;;13.15;34.08
49515;BME280;35415;47.870;16.058;2023-02-20T22:40:49;97226.88;;;12.87;33.22
49515;BME280;35415;47.870;16.058;2023-02-20T22:43:36;97292.47;;;13.27;33.36
49515;BME280;35415;47.870;16.058;2023-02-20T22:46:21;97301.06;;;13.34;33.26
49515;BME280;35415;47.870;16.058;2023-02-20T22:49:06;97262.06;;;13.11;33.06
49515;BME280;35415;47.870;16.058;2023-02-20T22:51:51;97280.69;;;13.12;32.73
49515;BME280;35415;47.870;16.058;2023-02-20T22:54:36;97280.97;;;13.11;32.82
49515;BME280;35415;47.870;16.058;2023-02-20T22:57:21;97258.03;;;13.08;32.56
49515;BME280;35415;47.870;16.058;2023-02-20T23:00:08;97300.03;;;13.30;32.75
49515;BME280;35415;47.870;16.058;2023-02-20T23:02:53;97305.13;;;13.31;32.27
49515;BME280;35415;47.870;16.058;2023-02-20T23:05:37;97254.56;;;13.03;32.24
49515;BME280;35415;47.870;16.058;2023-02-20T23:08:22;97278.34;;;13.35;32.88
49515;BME280;35415;47.870;16.058;2023-02-20T23:11:07;97242.44;;;13.00;32.51
49515;BME280;35415;47.870;16.058;2023-02-20T23:13:52;97272.50;;;13.28;32.71
49515;BME280;35415;47.870;16.058;2023-02-20T23:16:38;97244.00;;;13.06;32.14
49515;BME280;35415;47.870;16.058;2023-02-20T23:19:23;97295.56;;;13.44;32.01
49515;BME280;35415;47.870;16.058;2023-02-20T23:22:07;97205.16;;;13.02;32.28
49515;BME280;35415;47.870;16.058;2023-02-20T23:24:52;97306.59;;;13.47;31.92
49515;BME280;35415;47.870;16.058;2023-02-20T23:27:36;97245.28;;;13.19;32.01
49515;BME280;35415;47.870;16.058;2023-02-20T23:30:21;97278.00;;;13.41;32.09
49515;BME280;35415;47.870;16.058;2023-02-20T23:33:07;97278.81;;;13.42;31.98
49515;BME280;35415;47.870;16.058;2023-02-20T23:35:54;97266.50;;;13.31;31.70
49515;BME280;35415;47.870;16.058;2023-02-20T23:38:39;97249.81;;;13.23;31.88
49515;BME280;35415;47.870;16.058;2023-02-20T23:41:24;97217.06;;;13.01;31.77
49515;BME280;35415;47.870;16.058;2023-02-20T23:44:09;97247.78;;;13.10;31.65
49515;BME280;35415;47.870;16.058;2023-02-20T23:46:55;97279.34;;;13.44;31.59
49515;BME280;35415;47.870;16.058;2023-02-20T23:49:41;97231.50;;;13.15;32.05
49515;BME280;35415;47.870;16.058;2023-02-20T23:52:25;97235.00;;;13.21;31.87
49515;BME280;35415;47.870;16.058;2023-02-20T23:55:10;97263.28;;;13.29;32.28
49515;BME280;35415;47.870;16.058;2023-02-20T23:57:55;97272.44;;;13.33;32.01
